sensor_id;sensor_type;location;lat;lon;timestamp;P1;durP1;ratioP1;P2;durP2;ratioP2
70927;SDS011;58587;53.034;18.576;2022-12-16T10:37:12;83.63;;;30.73;;
70927;SDS011;58587;53.034;18.576;2022-12-16T10:39:58;101.90;;;32.80;;
70927;SDS011;58587;53.034;18.576;2022-12-16T10:42:49;128.68;;;41.35;;
70927;SDS011;58587;53.034;18.576;2022-12-16T10:45:48;105.20;;;35.45;;
70927;SDS011;58587;53.034;18.576;2022-12-16T10:48:34;91.93;;;33.20;;
70927;SDS011;58587;53.034;18.576;2022-12-16T10:51:20;103.00;;;35.80;;
70927;SDS011;58587;53.034;18.576;2022-12-16T11:01:04;90.38;;;30.38;;
70927;SDS011;58587;53.034;18.576;2022-12-16T11:04:21;88.25;;;30.45;;
70927;SDS011;58587;53.034;18.576;2022-12-16T11:07:24;91.87;;;31.00;;
70927;SDS011;58587;53.034;18.576;2022-12-16T11:10:23;90.03;;;30.33;;
70927;SDS011;58587;53.034;18.576;2022-12-16T11:13:17;89.82;;;31.67;;
70927;SDS011;58587;53.034;18.576;2022-12-16T11:16:10;85.00;;;31.00;;
70927;SDS011;58587;53.034;18.576;2022-12-16T11:18:56;101.07;;;34.83;;
70927;SDS011;58587;53.034;18.576;2022-12-16T11:21:40;88.20;;;31.03;;
70927;SDS011;58587;53.034;18.576;2022-12-16T11:24:24;89.82;;;30.98;;
70927;SDS011;58587;53.034;18.576;2022-12-16T11:27:13;94.60;;;34.25;;
70927;SDS011;58587;53.034;18.576;2022-12-16T11:30:14;89.88;;;31.30;;
70927;SDS011;58587;53.034;18.576;2022-12-16T11:33:03;80.97;;;29.25;;
70927;SDS011;58587;53.034;18.576;2022-12-16T11:36:05;82.17;;;28.23;;
70927;SDS011;58587;53.034;18.576;2022-12-16T11:38:53;87.22;;;29.95;;
70927;SDS011;58587;53.034;18.576;2022-12-16T11:41:38;100.97;;;32.85;;
70927;SDS011;58587;53.034;18.576;2022-12-16T11:44:27;90.13;;;30.45;;
70927;SDS011;58587;53.034;18.576;2022-12-16T11:50:21;97.43;;;31.27;;
70927;SDS011;58587;53.034;18.576;2022-12-16T11:53:30;97.75;;;32.33;;
70927;SDS011;58587;53.034;18.576;2022-12-16T11:56:21;94.97;;;30.52;;
70927;SDS011;58587;53.034;18.576;2022-12-16T11:59:10;94.95;;;32.33;;
70927;SDS011;58587;53.034;18.576;2022-12-16T12:02:20;98.90;;;31.40;;
70927;SDS011;58587;53.034;18.576;2022-12-16T12:05:12;94.07;;;31.30;;
70927;SDS011;58587;53.034;18.576;2022-12-16T12:08:18;99.57;;;33.63;;
70927;SDS011;58587;53.034;18.576;2022-12-16T12:11:14;110.00;;;35.40;;
70927;SDS011;58587;53.034;18.576;2022-12-16T12:14:21;98.93;;;32.47;;
70927;SDS011;58587;53.034;18.576;2022-12-16T12:17:14;96.57;;;31.27;;
70927;SDS011;58587;53.034;18.576;2022-12-16T12:22:56;107.97;;;33.25;;
70927;SDS011;58587;53.034;18.576;2022-12-16T12:35:28;103.13;;;33.07;;
70927;SDS011;58587;53.034;18.576;2022-12-16T12:41:18;106.35;;;32.78;;
70927;SDS011;58587;53.034;18.576;2022-12-16T12:47:04;97.43;;;30.73;;
70927;SDS011;58587;53.034;18.576;2022-12-16T12:55:56;104.25;;;31.33;;
70927;SDS011;58587;53.034;18.576;2022-12-16T12:58:48;92.72;;;29.30;;
70927;SDS011;58587;53.034;18.576;2022-12-16T13:01:35;110.97;;;33.97;;
70927;SDS011;58587;53.034;18.576;2022-12-16T13:04:23;109.13;;;34.17;;
70927;SDS011;58587;53.034;18.576;2022-12-16T13:07:09;108.20;;;32.90;;
70927;SDS011;58587;53.034;18.576;2022-12-16T13:15:58;103.05;;;32.20;;
70927;SDS011;58587;53.034;18.576;2022-12-16T13:18:43;127.63;;;37.97;;
70927;SDS011;58587;53.034;18.576;2022-12-16T13:24:28;110.47;;;34.05;;
70927;SDS011;58587;53.034;18.576;2022-12-16T13:27:18;115.20;;;33.03;;
70927;SDS011;58587;53.034;18.576;2022-12-16T13:36:06;136.20;;;42.67;;
70927;SDS011;58587;53.034;18.576;2022-12-16T13:38:52;122.97;;;37.95;;
70927;SDS011;58587;53.034;18.576;2022-12-16T13:50:34;115.55;;;36.13;;
70927;SDS011;58587;53.034;18.576;2022-12-16T13:53:23;103.80;;;32.35;;
70927;SDS011;58587;53.034;18.576;2022-12-16T13:56:11;110.50;;;31.45;;
70927;SDS011;58587;53.034;18.576;2022-12-16T13:58:59;108.65;;;32.50;;
70927;SDS011;58587;53.034;18.576;2022-12-16T14:01:53;98.80;;;30.60;;
70927;SDS011;58587;53.034;18.576;2022-12-16T14:04:43;92.72;;;31.45;;
70927;SDS011;58587;53.034;18.576;2022-12-16T14:07:31;133.85;;;37.17;;
70927;SDS011;58587;53.034;18.576;2022-12-16T14:13:13;114.18;;;34.83;;
70927;SDS011;58587;53.034;18.576;2022-12-16T14:16:08;156.77;;;61.10;;
70927;SDS011;58587;53.034;18.576;2022-12-16T14:19:04;103.03;;;37.20;;
70927;SDS011;58587;53.034;18.576;2022-12-16T14:22:29;91.63;;;31.92;;
70927;SDS011;58587;53.034;18.576;2022-12-16T14:25:23;100.55;;;30.67;;
70927;SDS011;58587;53.034;18.576;2022-12-16T14:31:23;92.37;;;29.70;;
70927;SDS011;58587;53.034;18.576;2022-12-16T14:34:17;105.68;;;32.95;;
70927;SDS011;58587;53.034;18.576;2022-12-16T14:37:11;104.13;;;33.67;;
70927;SDS011;58587;53.034;18.576;2022-12-16T14:39:56;103.53;;;30.65;;
70927;SDS011;58587;53.034;18.576;2022-12-16T14:42:40;102.50;;;33.90;;
70927;SDS011;58587;53.034;18.576;2022-12-16T14:45:28;104.90;;;32.20;;
70927;SDS011;58587;53.034;18.576;2022-12-16T14:51:46;102.55;;;31.67;;
70927;SDS011;58587;53.034;18.576;2022-12-16T14:57:07;113.28;;;34.72;;
70927;SDS011;58587;53.034;18.576;2022-12-16T15:03:02;105.27;;;35.00;;
70927;SDS011;58587;53.034;18.576;2022-12-16T15:06:09;117.25;;;34.22;;
70927;SDS011;58587;53.034;18.576;2022-12-16T15:08:56;104.13;;;33.20;;
70927;SDS011;58587;53.034;18.576;2022-12-16T15:11:46;105.65;;;31.10;;
70927;SDS011;58587;53.034;18.576;2022-12-16T15:14:32;102.87;;;31.70;;
70927;SDS011;58587;53.034;18.576;2022-12-16T15:17:24;118.75;;;35.03;;
70927;SDS011;58587;53.034;18.576;2022-12-16T15:20:23;117.60;;;36.03;;
70927;SDS011;58587;53.034;18.576;2022-12-16T15:23:14;104.88;;;33.30;;
70927;SDS011;58587;53.034;18.576;2022-12-16T15:26:04;103.10;;;32.03;;
70927;SDS011;58587;53.034;18.576;2022-12-16T15:28:49;106.63;;;31.73;;
70927;SDS011;58587;53.034;18.576;2022-12-16T15:31:34;101.85;;;28.73;;
70927;SDS011;58587;53.034;18.576;2022-12-16T15:34:28;95.28;;;27.88;;
70927;SDS011;58587;53.034;18.576;2022-12-16T15:37:24;106.72;;;30.02;;
70927;SDS011;58587;53.034;18.576;2022-12-16T15:40:28;103.88;;;30.38;;
70927;SDS011;58587;53.034;18.576;2022-12-16T15:43:21;101.60;;;30.03;;
70927;SDS011;58587;53.034;18.576;2022-12-16T15:46:22;105.13;;;32.65;;
70927;SDS011;58587;53.034;18.576;2022-12-16T15:58:15;120.90;;;33.13;;
70927;SDS011;58587;53.034;18.576;2022-12-16T16:01:22;116.78;;;31.50;;
70927;SDS011;58587;53.034;18.576;2022-12-16T16:04:15;106.30;;;28.80;;
70927;SDS011;58587;53.034;18.576;2022-12-16T16:07:02;106.25;;;31.50;;
70927;SDS011;58587;53.034;18.576;2022-12-16T16:09:46;106.07;;;29.42;;
70927;SDS011;58587;53.034;18.576;2022-12-16T16:12:30;116.63;;;31.23;;
70927;SDS011;58587;53.034;18.576;2022-12-16T16:15:14;102.28;;;30.88;;
70927;SDS011;58587;53.034;18.576;2022-12-16T16:18:00;114.90;;;31.23;;
70927;SDS011;58587;53.034;18.576;2022-12-16T16:20:46;115.13;;;29.60;;
70927;SDS011;58587;53.034;18.576;2022-12-16T16:23:30;129.80;;;35.95;;
70927;SDS011;58587;53.034;18.576;2022-12-16T16:26:15;116.60;;;31.23;;
70927;SDS011;58587;53.034;18.576;2022-12-16T16:29:00;120.18;;;35.13;;
70927;SDS011;58587;53.034;18.576;2022-12-16T16:31:44;116.35;;;32.85;;
70927;SDS011;58587;53.034;18.576;2022-12-16T16:34:28;131.60;;;35.05;;
70927;SDS011;58587;53.034;18.576;2022-12-16T16:37:13;118.90;;;32.03;;
70927;SDS011;58587;53.034;18.576;2022-12-16T16:39:58;120.60;;;33.37;;
70927;SDS011;58587;53.034;18.576;2022-12-16T16:42:43;109.55;;;31.38;;
70927;SDS011;58587;53.034;18.576;2022-12-16T16:45:26;116.45;;;32.42;;
70927;SDS011;58587;53.034;18.576;2022-12-16T16:48:11;108.70;;;30.08;;
70927;SDS011;58587;53.034;18.576;2022-12-16T16:50:58;118.82;;;33.63;;
70927;SDS011;58587;53.034;18.576;2022-12-16T16:53:42;100.93;;;31.17;;
70927;SDS011;58587;53.034;18.576;2022-12-16T16:56:27;117.82;;;33.95;;
70927;SDS011;58587;53.034;18.576;2022-12-16T16:59:13;110.00;;;32.35;;
70927;SDS011;58587;53.034;18.576;2022-12-16T17:01:58;114.18;;;33.35;;
70927;SDS011;58587;53.034;18.576;2022-12-16T17:04:42;96.57;;;30.40;;
70927;SDS011;58587;53.034;18.576;2022-12-16T17:07:26;103.57;;;29.00;;
70927;SDS011;58587;53.034;18.576;2022-12-16T17:10:10;108.97;;;30.63;;
70927;SDS011;58587;53.034;18.576;2022-12-16T17:12:54;129.45;;;32.83;;
70927;SDS011;58587;53.034;18.576;2022-12-16T17:15:38;94.35;;;25.88;;
70927;SDS011;58587;53.034;18.576;2022-12-16T17:18:22;120.30;;;33.60;;
70927;SDS011;58587;53.034;18.576;2022-12-16T17:21:06;114.30;;;31.83;;
70927;SDS011;58587;53.034;18.576;2022-12-16T17:23:50;95.13;;;28.77;;
70927;SDS011;58587;53.034;18.576;2022-12-16T17:26:34;97.55;;;27.70;;
70927;SDS011;58587;53.034;18.576;2022-12-16T17:29:23;102.25;;;29.70;;
70927;SDS011;58587;53.034;18.576;2022-12-16T17:32:08;111.22;;;31.77;;
70927;SDS011;58587;53.034;18.576;2022-12-16T17:34:51;100.73;;;29.27;;
70927;SDS011;58587;53.034;18.576;2022-12-16T17:37:35;109.78;;;31.75;;
70927;SDS011;58587;53.034;18.576;2022-12-16T17:40:20;148.55;;;41.67;;
70927;SDS011;58587;53.034;18.576;2022-12-16T18:00:43;140.07;;;42.33;;
70927;SDS011;58587;53.034;18.576;2022-12-16T18:03:27;131.07;;;41.80;;
70927;SDS011;58587;53.034;18.576;2022-12-16T18:06:11;139.43;;;40.22;;
70927;SDS011;58587;53.034;18.576;2022-12-16T18:08:55;134.98;;;37.22;;
70927;SDS011;58587;53.034;18.576;2022-12-16T18:11:39;103.10;;;31.25;;
70927;SDS011;58587;53.034;18.576;2022-12-16T18:14:23;121.00;;;33.53;;
70927;SDS011;58587;53.034;18.576;2022-12-16T18:17:07;104.50;;;30.00;;
70927;SDS011;58587;53.034;18.576;2022-12-16T18:19:51;107.25;;;30.58;;
70927;SDS011;58587;53.034;18.576;2022-12-16T18:22:34;108.30;;;30.60;;
70927;SDS011;58587;53.034;18.576;2022-12-16T18:25:19;96.20;;;29.88;;
70927;SDS011;58587;53.034;18.576;2022-12-16T18:28:02;108.87;;;35.87;;
70927;SDS011;58587;53.034;18.576;2022-12-16T18:30:46;102.47;;;32.05;;
70927;SDS011;58587;53.034;18.576;2022-12-16T18:33:30;100.78;;;30.10;;
70927;SDS011;58587;53.034;18.576;2022-12-16T18:36:15;94.90;;;27.35;;
70927;SDS011;58587;53.034;18.576;2022-12-16T18:38:59;93.57;;;27.98;;
70927;SDS011;58587;53.034;18.576;2022-12-16T18:41:44;109.07;;;30.37;;
70927;SDS011;58587;53.034;18.576;2022-12-16T18:44:29;117.68;;;32.42;;
70927;SDS011;58587;53.034;18.576;2022-12-16T18:47:14;126.38;;;34.28;;
70927;SDS011;58587;53.034;18.576;2022-12-16T18:49:58;129.80;;;36.60;;
70927;SDS011;58587;53.034;18.576;2022-12-16T18:52:42;119.40;;;33.38;;
70927;SDS011;58587;53.034;18.576;2022-12-16T18:55:25;131.23;;;35.63;;
70927;SDS011;58587;53.034;18.576;2022-12-16T18:58:10;145.55;;;38.25;;
70927;SDS011;58587;53.034;18.576;2022-12-16T19:01:04;166.75;;;43.75;;
70927;SDS011;58587;53.034;18.576;2022-12-16T19:03:50;135.65;;;33.75;;
70927;SDS011;58587;53.034;18.576;2022-12-16T19:06:34;119.72;;;33.00;;
70927;SDS011;58587;53.034;18.576;2022-12-16T19:09:18;123.70;;;33.57;;
70927;SDS011;58587;53.034;18.576;2022-12-16T19:12:02;142.70;;;37.75;;
70927;SDS011;58587;53.034;18.576;2022-12-16T19:14:46;112.75;;;32.30;;
70927;SDS011;58587;53.034;18.576;2022-12-16T19:17:30;114.75;;;32.03;;
70927;SDS011;58587;53.034;18.576;2022-12-16T19:20:15;116.85;;;32.55;;
70927;SDS011;58587;53.034;18.576;2022-12-16T19:22:59;104.70;;;28.43;;
70927;SDS011;58587;53.034;18.576;2022-12-16T19:25:43;99.78;;;28.60;;
70927;SDS011;58587;53.034;18.576;2022-12-16T19:28:27;93.30;;;27.95;;
70927;SDS011;58587;53.034;18.576;2022-12-16T19:31:11;89.88;;;27.33;;
70927;SDS011;58587;53.034;18.576;2022-12-16T19:33:55;96.07;;;26.52;;
70927;SDS011;58587;53.034;18.576;2022-12-16T19:36:39;117.83;;;31.13;;
70927;SDS011;58587;53.034;18.576;2022-12-16T19:39:24;108.22;;;30.02;;
70927;SDS011;58587;53.034;18.576;2022-12-16T19:42:08;98.78;;;26.73;;
70927;SDS011;58587;53.034;18.576;2022-12-16T19:44:52;113.53;;;30.13;;
70927;SDS011;58587;53.034;18.576;2022-12-16T19:47:36;111.45;;;29.17;;
70927;SDS011;58587;53.034;18.576;2022-12-16T19:50:20;112.43;;;30.83;;
70927;SDS011;58587;53.034;18.576;2022-12-16T19:53:04;97.90;;;27.30;;
70927;SDS011;58587;53.034;18.576;2022-12-16T19:55:53;139.80;;;36.83;;
70927;SDS011;58587;53.034;18.576;2022-12-16T19:58:37;101.18;;;27.30;;
70927;SDS011;58587;53.034;18.576;2022-12-16T20:01:21;93.63;;;26.20;;
70927;SDS011;58587;53.034;18.576;2022-12-16T20:04:05;97.87;;;26.90;;
70927;SDS011;58587;53.034;18.576;2022-12-16T20:06:49;96.80;;;28.08;;
70927;SDS011;58587;53.034;18.576;2022-12-16T20:09:33;89.63;;;25.80;;
70927;SDS011;58587;53.034;18.576;2022-12-16T20:12:17;90.18;;;24.63;;
70927;SDS011;58587;53.034;18.576;2022-12-16T20:15:01;96.72;;;26.50;;
70927;SDS011;58587;53.034;18.576;2022-12-16T20:17:45;99.37;;;27.27;;
70927;SDS011;58587;53.034;18.576;2022-12-16T20:20:29;100.38;;;26.95;;
70927;SDS011;58587;53.034;18.576;2022-12-16T20:23:13;99.28;;;26.08;;
70927;SDS011;58587;53.034;18.576;2022-12-16T20:25:57;165.45;;;40.70;;
70927;SDS011;58587;53.034;18.576;2022-12-16T20:28:43;118.93;;;32.10;;
70927;SDS011;58587;53.034;18.576;2022-12-16T20:31:27;152.47;;;45.27;;
70927;SDS011;58587;53.034;18.576;2022-12-16T20:34:11;129.80;;;37.10;;
70927;SDS011;58587;53.034;18.576;2022-12-16T20:36:55;110.53;;;27.98;;
70927;SDS011;58587;53.034;18.576;2022-12-16T20:39:40;123.95;;;30.42;;
70927;SDS011;58587;53.034;18.576;2022-12-16T20:42:26;109.13;;;26.90;;
70927;SDS011;58587;53.034;18.576;2022-12-16T20:45:10;93.30;;;25.47;;
70927;SDS011;58587;53.034;18.576;2022-12-16T20:47:57;81.75;;;22.20;;
70927;SDS011;58587;53.034;18.576;2022-12-16T20:50:41;81.25;;;23.42;;
70927;SDS011;58587;53.034;18.576;2022-12-16T20:53:25;102.75;;;25.73;;
70927;SDS011;58587;53.034;18.576;2022-12-16T20:56:10;89.13;;;22.23;;
70927;SDS011;58587;53.034;18.576;2022-12-16T20:58:54;84.23;;;21.67;;
70927;SDS011;58587;53.034;18.576;2022-12-16T21:01:37;159.52;;;39.38;;
70927;SDS011;58587;53.034;18.576;2022-12-16T21:04:21;90.65;;;26.80;;
70927;SDS011;58587;53.034;18.576;2022-12-16T21:07:05;79.60;;;20.88;;
70927;SDS011;58587;53.034;18.576;2022-12-16T21:09:49;84.57;;;25.90;;
70927;SDS011;58587;53.034;18.576;2022-12-16T21:12:33;74.77;;;22.47;;
70927;SDS011;58587;53.034;18.576;2022-12-16T21:15:17;92.53;;;31.98;;
70927;SDS011;58587;53.034;18.576;2022-12-16T21:18:01;68.95;;;21.33;;
70927;SDS011;58587;53.034;18.576;2022-12-16T21:20:54;75.95;;;20.75;;
70927;SDS011;58587;53.034;18.576;2022-12-16T21:23:38;72.72;;;20.60;;
70927;SDS011;58587;53.034;18.576;2022-12-16T21:26:22;75.77;;;21.13;;
70927;SDS011;58587;53.034;18.576;2022-12-16T21:29:07;69.72;;;19.92;;
70927;SDS011;58587;53.034;18.576;2022-12-16T21:31:51;92.80;;;24.67;;
70927;SDS011;58587;53.034;18.576;2022-12-16T21:34:34;93.53;;;24.13;;
70927;SDS011;58587;53.034;18.576;2022-12-16T21:37:18;82.65;;;22.30;;
70927;SDS011;58587;53.034;18.576;2022-12-16T21:40:03;90.53;;;24.57;;
70927;SDS011;58587;53.034;18.576;2022-12-16T21:42:47;91.65;;;23.63;;
70927;SDS011;58587;53.034;18.576;2022-12-16T21:45:31;85.72;;;22.17;;
70927;SDS011;58587;53.034;18.576;2022-12-16T21:48:15;94.10;;;24.38;;
70927;SDS011;58587;53.034;18.576;2022-12-16T21:50:59;130.05;;;38.03;;
70927;SDS011;58587;53.034;18.576;2022-12-16T21:53:43;83.87;;;27.63;;
70927;SDS011;58587;53.034;18.576;2022-12-16T21:56:27;99.20;;;33.63;;
70927;SDS011;58587;53.034;18.576;2022-12-16T21:59:13;89.13;;;26.15;;
70927;SDS011;58587;53.034;18.576;2022-12-16T22:01:57;84.72;;;23.60;;
70927;SDS011;58587;53.034;18.576;2022-12-16T22:04:40;80.45;;;21.90;;
70927;SDS011;58587;53.034;18.576;2022-12-16T22:07:25;80.90;;;22.80;;
70927;SDS011;58587;53.034;18.576;2022-12-16T22:10:09;77.20;;;21.42;;
70927;SDS011;58587;53.034;18.576;2022-12-16T22:12:53;81.88;;;22.05;;
70927;SDS011;58587;53.034;18.576;2022-12-16T22:15:37;95.20;;;25.25;;
70927;SDS011;58587;53.034;18.576;2022-12-16T22:18:21;116.07;;;31.70;;
70927;SDS011;58587;53.034;18.576;2022-12-16T22:21:05;91.33;;;24.43;;
70927;SDS011;58587;53.034;18.576;2022-12-16T22:23:49;89.13;;;22.42;;
70927;SDS011;58587;53.034;18.576;2022-12-16T22:26:33;96.80;;;25.50;;
70927;SDS011;58587;53.034;18.576;2022-12-16T22:29:17;106.25;;;26.42;;
70927;SDS011;58587;53.034;18.576;2022-12-16T22:32:02;110.80;;;28.95;;
70927;SDS011;58587;53.034;18.576;2022-12-16T22:34:47;107.60;;;38.33;;
70927;SDS011;58587;53.034;18.576;2022-12-16T22:37:31;96.78;;;27.25;;
70927;SDS011;58587;53.034;18.576;2022-12-16T22:40:15;97.75;;;28.25;;
70927;SDS011;58587;53.034;18.576;2022-12-16T22:42:59;88.18;;;25.73;;
70927;SDS011;58587;53.034;18.576;2022-12-16T22:45:43;86.28;;;24.15;;
70927;SDS011;58587;53.034;18.576;2022-12-16T22:48:26;74.03;;;22.37;;
70927;SDS011;58587;53.034;18.576;2022-12-16T22:51:11;83.20;;;23.13;;
70927;SDS011;58587;53.034;18.576;2022-12-16T22:53:56;98.55;;;27.13;;
70927;SDS011;58587;53.034;18.576;2022-12-16T22:56:40;82.13;;;22.17;;
70927;SDS011;58587;53.034;18.576;2022-12-16T22:59:24;94.25;;;23.67;;
70927;SDS011;58587;53.034;18.576;2022-12-16T23:02:08;91.23;;;23.57;;
70927;SDS011;58587;53.034;18.576;2022-12-16T23:04:52;120.20;;;28.83;;
70927;SDS011;58587;53.034;18.576;2022-12-16T23:07:35;94.85;;;25.85;;
70927;SDS011;58587;53.034;18.576;2022-12-16T23:10:19;87.35;;;22.00;;
70927;SDS011;58587;53.034;18.576;2022-12-16T23:13:03;91.13;;;23.60;;
70927;SDS011;58587;53.034;18.576;2022-12-16T23:15:47;89.03;;;24.77;;
70927;SDS011;58587;53.034;18.576;2022-12-16T23:18:31;79.65;;;21.40;;
70927;SDS011;58587;53.034;18.576;2022-12-16T23:21:15;74.30;;;20.30;;
70927;SDS011;58587;53.034;18.576;2022-12-16T23:24:01;79.88;;;22.48;;
70927;SDS011;58587;53.034;18.576;2022-12-16T23:26:45;89.00;;;24.48;;
70927;SDS011;58587;53.034;18.576;2022-12-16T23:29:29;71.00;;;19.47;;
70927;SDS011;58587;53.034;18.576;2022-12-16T23:32:13;73.72;;;18.88;;
70927;SDS011;58587;53.034;18.576;2022-12-16T23:34:57;69.55;;;18.88;;
70927;SDS011;58587;53.034;18.576;2022-12-16T23:37:41;82.35;;;22.30;;
70927;SDS011;58587;53.034;18.576;2022-12-16T23:40:25;75.55;;;21.65;;
70927;SDS011;58587;53.034;18.576;2022-12-16T23:43:09;74.30;;;21.00;;
70927;SDS011;58587;53.034;18.576;2022-12-16T23:45:53;76.70;;;20.30;;
70927;SDS011;58587;53.034;18.576;2022-12-16T23:48:37;104.28;;;26.83;;
70927;SDS011;58587;53.034;18.576;2022-12-16T23:51:21;93.50;;;22.90;;
70927;SDS011;58587;53.034;18.576;2022-12-16T23:54:05;115.63;;;27.50;;
70927;SDS011;58587;53.034;18.576;2022-12-16T23:56:49;85.03;;;23.47;;
70927;SDS011;58587;53.034;18.576;2022-12-16T23:59:33;91.22;;;30.38;;
